NATIONAL KEY DEER NWR FL US current weather conditions

sailwx.info

Wind from 239 at 1 knots gusting 6

Air temperature 31.1° C
Dewpoint 22.1° C

Last reported at 2016-Sep-28 22:38 UTC.
Time now 2016-Sep-28 23:58 UTC

Location: N 24°43' W 081°23'.
View on Google Maps.

See reports from other nearby stations

  
Tides and Currents Weather Stations Pressure Air Temp Water Temp Dewpoint Dewpoint Depression Visibility Wind Speed Wind Dir Waves Ship Positions
date/time (UTC)wind fromknots sea level pressurealtimeterstation pressurevisibilityair tempwater tempwave heightnotes
2016-Sep-28 22:38 239 1 gusting 6 31.1
2016-Sep-28 21:38 244 3 gusting 6 31.7
2016-Sep-28 20:38 222 4 gusting 6 31.7
2016-Sep-28 19:38 199 4 gusting 6 32.2
2016-Sep-28 18:38 199 5 gusting 9 32.2
2016-Sep-28 17:38 225 5 gusting 8 32.2
2016-Sep-28 16:38 208 3 gusting 7 32.2
2016-Sep-28 15:38 212 3 gusting 6 31.7
2016-Sep-28 14:38 235 3 gusting 6 31.1
2016-Sep-28 13:38 274 2 gusting 5 29.4
2016-Sep-28 12:38 26.1
2016-Sep-28 11:38 22.2
2016-Sep-28 10:38 22.2
2016-Sep-28 09:38 284 0 gusting 1 22.2
2016-Sep-28 08:38 22.2
2016-Sep-28 07:38 22.2
2016-Sep-28 06:38 22.2
2016-Sep-28 05:38 22.2
2016-Sep-28 04:38 183 0 gusting 1 22.2
2016-Sep-28 03:38 22.8
2016-Sep-28 02:38 176 1 gusting 2 23.3
2016-Sep-28 01:38 22.8
2016-Sep-28 00:38 23.3
2016-Sep-27 23:38 24.4
2016-Sep-27 22:38 207 1 gusting 2 27.8
2016-Sep-27 21:38 26.1
2016-Sep-27 20:38 123 1 gusting 6 26.7
2016-Sep-27 19:38 185 3 gusting 8 25.0
2016-Sep-27 18:38 184 4 gusting 6 23.9
2016-Sep-27 17:38 178 0 gusting 6 23.9
2016-Sep-27 16:38 224 4 gusting 16 23.3
2016-Sep-27 15:38 236 5 gusting 11 25.0
2016-Sep-27 14:38 150 3 gusting 6 28.3
2016-Sep-27 13:38 118 0 gusting 4 28.3
2016-Sep-27 12:38 26.7
2016-Sep-27 11:38 25.0
2016-Sep-27 10:38 144 0 gusting 6 25.6
2016-Sep-27 09:38 174 2 gusting 6 25.0
2016-Sep-27 08:38 23.9
2016-Sep-27 07:38 23.9
2016-Sep-27 06:38 212 1 gusting 3 24.4
2016-Sep-27 05:38 24.4
2016-Sep-27 04:38 236 0 gusting 2 25.0
2016-Sep-27 03:38 092 1 gusting 4 25.6
2016-Sep-27 02:38 25.0
2016-Sep-27 01:38 037 3 gusting 6 25.0
2016-Sep-27 00:38 346 0 gusting 2 24.4
2016-Sep-26 23:38 151 0 gusting 3 25.0